Terskol, Russia
Current Conditions -  °F | °C
As of 9:00 AM on Friday 31 Oct 2014 (Local Time) from URMN Reporting Station
Overcast Overcast  
Wind Chill: 43°   Ceiling: 26000
Heat Index: 43°   Visibility: 6mi
Dew Point: 36°   Wind: 0mph
Humidity: 76%   Direction: NA
Pressure: 30"   Gusts: NA
Location:  43.26°N, 42.53°E
Report Text: URMN 310600Z 00000MPS 9999 OVC260 06/02 Q1016 NOSIG RMK QFE725SC06
Loading
Personal Weather Stations






























Interactive Weather Map
Tropical Storm Tracking
New forecast layout! Learn more

10-Day Weather Forecast

Advertisements
Track Severe Weather on mobile